Time;durP1;ratioP1;P1;durP2;ratioP2;P2;SDS_P1;SDS_P2;PMS_P1;PMS_P2;Temp;Humidity;BMP_temperature;BMP_pressure;BME280_temperature;BME280_humidity;BME280_pressure;Samples;Min_cycle;Max_cycle;Signal;HPM_P1;HPM_P2
2023/11/18 00:02:27;;;;;;;22.50;11.00;;;;;;;4.33;99.70;100650.05;676108;1267;139724;-83
2023/11/18 00:18:04;;;;;;;29.20;12.60;;;;;;;4.25;99.92;100669.40;671319;1266;139044;-83
2023/11/18 00:33:41;;;;;;;21.20;10.90;;;;;;;4.31;99.39;100682.37;674228;1262;139176;-83
2023/11/18 00:49:20;;;;;;;32.10;14.20;;;;;;;4.40;98.81;100704.58;677060;1263;139163;-83
2023/11/18 01:04:57;;;;;;;25.70;13.30;;;;;;;4.27;98.50;100708.41;673451;1263;138809;-82
2023/11/18 01:20:34;;;;;;;25.00;10.30;;;;;;;4.06;98.63;100718.00;673934;1264;139307;-83
2023/11/18 01:36:12;;;;;;;24.80;12.80;;;;;;;4.10;98.57;100726.95;672749;1266;139236;-83
2023/11/18 01:51:51;;;;;;;24.60;12.10;;;;;;;4.01;99.39;100736.63;674994;1263;138945;-83
2023/11/18 02:07:28;;;;;;;30.00;14.10;;;;;;;4.07;99.45;100736.30;672729;1260;139765;-83
2023/11/18 02:23:07;;;;;;;32.90;16.10;;;;;;;4.22;99.08;100754.94;675094;1260;139311;-83
2023/11/18 02:38:54;;;;;;;20.10;11.10;;;;;;;4.37;99.17;100773.15;671433;1266;139323;-83
2023/11/18 02:54:31;;;;;;;48.70;17.70;;;;;;;4.36;99.67;100787.56;672102;1263;139960;-83
2023/11/18 03:10:11;;;;;;;30.00;15.00;;;;;;;4.27;99.33;100790.64;670328;1265;139883;-83
2023/11/18 03:25:48;;;;;;;30.10;14.80;;;;;;;4.09;99.81;100801.44;677948;1260;138899;-83
2023/11/18 03:41:26;;;;;;;20.80;11.60;;;;;;;4.08;99.42;100799.61;673401;1261;138913;-83
2023/11/18 03:57:03;;;;;;;24.30;12.10;;;;;;;3.63;99.09;100808.66;675778;1261;138978;-83
2023/11/18 04:12:40;;;;;;;24.50;12.50;;;;;;;3.32;99.77;100817.84;671521;1260;139406;-83
2023/11/18 04:28:17;;;;;;;22.80;11.90;;;;;;;3.29;99.16;100824.00;680017;1257;138663;-83
2023/11/18 04:43:55;;;;;;;23.50;12.30;;;;;;;3.29;99.62;100844.41;670453;1260;139448;-83
2023/11/18 04:59:32;;;;;;;28.60;13.30;;;;;;;3.21;98.97;100861.58;672331;1262;139109;-83
2023/11/18 05:15:13;;;;;;;15.10;9.40;;;;;;;2.75;99.74;100873.38;678758;1262;138758;-83
2023/11/18 05:30:50;;;;;;;24.00;12.00;;;;;;;2.63;99.88;100895.38;674031;1260;139592;-83
2023/11/18 05:46:29;;;;;;;35.40;16.40;;;;;;;2.55;100.00;100929.22;670719;1260;138977;-83
2023/11/18 06:02:07;;;;;;;53.30;24.20;;;;;;;2.39;100.00;100952.17;676364;1261;139044;-83
2023/11/18 06:17:44;;;;;;;39.80;20.70;;;;;;;2.29;100.00;100969.52;678333;1260;140349;-84
2023/11/18 06:33:26;;;;;;;51.00;24.00;;;;;;;2.42;99.68;100981.88;680641;1257;139128;-84
2023/11/18 06:49:04;;;;;;;58.90;26.30;;;;;;;3.14;95.13;101003.81;678923;1261;139757;-83
2023/11/18 07:04:40;;;;;;;220.10;75.20;;;;;;;3.06;94.64;101036.81;678607;1260;140003;-83
2023/11/18 07:20:17;;;;;;;58.70;27.00;;;;;;;2.98;94.64;101047.02;677946;1260;140350;-83
2023/11/18 07:35:55;;;;;;;44.80;20.10;;;;;;;3.32;95.47;101064.06;673466;1259;138939;-82
2023/11/18 07:51:33;;;;;;;642.50;176.70;;;;;;;2.98;97.98;101072.46;675816;1262;139859;-84
2023/11/18 08:07:10;;;;;;;89.50;32.80;;;;;;;3.04;99.29;101070.80;667665;1262;139576;-84
2023/11/18 08:22:50;;;;;;;70.20;30.30;;;;;;;3.20;99.67;101074.23;672690;1263;139120;-84
2023/11/18 08:38:28;;;;;;;94.40;37.50;;;;;;;3.42;99.73;101084.70;678577;1262;139484;-83
2023/11/18 08:54:22;;;;;;;45.10;22.30;;;;;;;3.44;99.39;101092.18;676838;1272;139502;-84
2023/11/18 09:09:58;;;;;;;53.70;27.00;;;;;;;3.49;99.11;101098.71;675278;1262;139993;-84
2023/11/18 09:25:36;;;;;;;38.30;21.60;;;;;;;6.13;99.85;101108.37;671394;1262;138496;-83
2023/11/18 09:41:16;;;;;;;40.40;19.10;;;;;;;9.92;93.66;101115.95;672835;1261;138971;-83
2023/11/18 09:57:13;;;;;;;23.10;12.20;;;;;;;11.26;89.91;101112.58;672502;1269;138898;-83
2023/11/18 10:12:58;;;;;;;11.80;6.40;;;;;;;11.30;80.42;101119.74;673884;1260;139421;-84
2023/11/18 10:28:42;;;;;;;9.80;6.40;;;;;;;11.14;77.02;101120.21;675525;1270;139194;-83
2023/11/18 10:44:19;;;;;;;10.80;5.70;;;;;;;10.57;71.89;101124.45;672980;1263;138481;-82
2023/11/18 11:00:14;;;;;;;28.00;11.00;;;;;;;9.71;70.72;101134.54;672663;1257;138709;-80
2023/11/18 11:15:52;;;;;;;7.70;4.80;;;;;;;9.65;70.37;101142.48;676526;1258;139495;-80
2023/11/18 11:31:51;;;;;;;11.90;6.10;;;;;;;9.33;68.87;101168.95;670827;1273;137884;-80
2023/11/18 11:47:35;;;;;;;27.40;14.40;;;;;;;8.38;67.76;101186.05;674179;1264;139098;-80
2023/11/18 12:03:18;;;;;;;12.70;5.70;;;;;;;6.22;70.20;101206.08;675346;1261;138922;-81
2023/11/18 12:19:46;;;;;;;27.60;13.10;;;;;;;6.31;67.87;101211.91;672514;1270;138429;-82
2023/11/18 12:35:23;;;;;;;28.20;16.40;;;;;;;6.17;67.96;101205.92;679955;1258;138726;-84
2023/11/18 12:51:00;;;;;;;14.30;8.30;;;;;;;5.98;68.27;101210.36;677946;1262;139370;-80
2023/11/18 13:06:37;;;;;;;26.30;13.10;;;;;;;6.06;69.01;101221.93;674616;1257;138737;-81
2023/11/18 13:22:18;;;;;;;17.40;10.20;;;;;;;6.12;70.07;101229.98;679773;1260;138888;-83
2023/11/18 13:38:11;;;;;;;22.00;10.60;;;;;;;5.86;69.04;101229.91;678617;1258;138838;-83
2023/11/18 13:53:52;;;;;;;55.80;19.70;;;;;;;5.51;68.88;101231.38;677013;1257;140498;-82
2023/11/18 14:09:31;;;;;;;85.40;32.00;;;;;;;5.20;69.03;101228.45;674710;1262;139764;-82
2023/11/18 14:25:06;;;;;;;97.50;44.50;;;;;;;4.98;69.99;101232.69;674108;1257;138957;-82
2023/11/18 14:40:42;;;;;;;83.60;31.60;;;;;;;4.80;71.20;101255.56;676076;1262;139559;-82
2023/11/18 14:56:19;;;;;;;57.40;21.60;;;;;;;4.43;72.06;101266.14;675956;1260;138942;-82
2023/11/18 15:11:56;;;;;;;57.20;27.00;;;;;;;4.19;73.23;101269.81;681448;1257;139746;-83
2023/11/18 15:27:34;;;;;;;182.70;65.00;;;;;;;4.07;73.95;101268.11;676147;1257;139689;-81
2023/11/18 15:43:11;;;;;;;54.90;26.10;;;;;;;4.04;74.99;101267.91;678614;1260;139376;-82
2023/11/18 15:58:50;;;;;;;95.00;47.10;;;;;;;3.86;74.97;101256.95;678391;1260;139003;-80
2023/11/18 16:14:28;;;;;;;252.50;92.80;;;;;;;3.72;75.88;101249.79;675290;1261;139943;-80
2023/11/18 16:30:06;;;;;;;234.10;82.30;;;;;;;3.60;77.24;101255.48;677556;1257;139136;-81
2023/11/18 16:45:43;;;;;;;140.40;51.50;;;;;;;3.41;77.89;101245.37;679390;1257;139938;-80
2023/11/18 17:01:24;;;;;;;163.90;61.50;;;;;;;3.32;78.71;101228.48;681957;1259;139197;-81
2023/11/18 17:17:01;;;;;;;199.60;77.20;;;;;;;3.25;79.49;101240.20;682888;1260;139393;-80
2023/11/18 17:32:38;;;;;;;134.20;57.50;;;;;;;3.09;80.45;101244.13;681923;1260;139514;-80
2023/11/18 17:48:16;;;;;;;99.20;42.40;;;;;;;3.09;82.17;101247.77;675350;1272;139285;-80
2023/11/18 18:03:53;;;;;;;181.00;75.60;;;;;;;3.11;83.21;101252.50;682243;1260;139273;-81
2023/11/18 18:19:30;;;;;;;167.40;64.90;;;;;;;3.11;83.29;101251.50;678699;1260;139442;-79
2023/11/18 18:35:07;;;;;;;343.90;121.40;;;;;;;3.05;84.00;101254.33;682796;1260;138993;-80
2023/11/18 18:50:45;;;;;;;178.50;67.90;;;;;;;3.27;84.83;101266.00;680264;1262;139717;-79
2023/11/18 19:06:25;;;;;;;212.50;83.50;;;;;;;3.31;84.48;101254.60;682641;1260;139362;-81
2023/11/18 19:22:06;;;;;;;142.60;55.50;;;;;;;3.28;84.27;101235.22;679568;1256;139340;-81
2023/11/18 19:37:48;;;;;;;192.50;69.50;;;;;;;3.21;84.23;101223.73;678463;1260;140130;-81
2023/11/18 19:53:31;;;;;;;428.40;141.60;;;;;;;3.13;84.59;101187.92;670102;1260;10136529;-81
2023/11/18 20:09:10;;;;;;;364.00;133.40;;;;;;;3.11;85.53;101197.70;680763;1260;140420;-81
2023/11/18 20:24:49;;;;;;;506.30;196.30;;;;;;;3.00;86.10;101196.29;675049;1260;139653;-81
2023/11/18 20:40:26;;;;;;;235.40;91.10;;;;;;;2.90;85.98;101176.46;675603;1262;22216;-80
2023/11/18 20:56:04;;;;;;;228.40;82.70;;;;;;;2.95;86.41;101173.69;673881;1260;139229;-81
2023/11/18 21:11:41;;;;;;;102.20;46.90;;;;;;;2.95;86.42;101185.59;676331;1263;139769;-81
2023/11/18 21:27:18;;;;;;;197.50;74.00;;;;;;;2.94;87.00;101198.94;679450;1260;139695;-81
2023/11/18 21:42:56;;;;;;;194.80;82.40;;;;;;;2.84;87.96;101206.45;676070;1273;139114;-81
2023/11/18 21:58:40;;;;;;;274.00;112.90;;;;;;;2.99;88.72;101206.54;673028;1262;139162;-80
2023/11/18 22:14:18;;;;;;;102.40;41.40;;;;;;;2.86;88.04;101166.63;674736;1269;141091;-80
2023/11/18 22:29:55;;;;;;;88.30;38.10;;;;;;;2.94;87.71;101145.54;679954;1262;24551;-81
2023/11/18 22:45:32;;;;;;;68.50;28.80;;;;;;;2.91;87.57;101115.95;678162;1263;139855;-81
2023/11/18 23:01:11;;;;;;;51.10;21.40;;;;;;;2.75;87.08;101068.77;676739;1260;139746;-81
2023/11/18 23:16:52;;;;;;;44.90;19.40;;;;;;;2.69;87.30;101062.98;675831;1262;139678;-81
2023/11/18 23:32:39;;;;;;;104.20;35.00;;;;;;;2.67;87.46;101060.30;682030;1263;139947;-81
2023/11/18 23:48:17;;;;;;;58.60;21.00;;;;;;;2.72;86.71;101046.44;681194;1258;139838;-81
